Currently 79°F in Riverside (Orangecrest), California, USA
79°F
79°F / 54°F
8 mph S
0.00"
Tuesday, April 23, 2019 11:29 AM PDT

Riverside (Orangecrest), California Weather Summary
Last 36 Hours

Temperature Winds Hourly Humidity Dewpoint
Time Report Norm Report Norm Max Gusts Precip. Rpt. Norm Rpt. Norm Pressure
1,2Tue 11:29 AM  79.2°F  69°F  8 mph S  4 mph  19 mph  0.00"  16%  36%  28°F  40°F  30.00"
Tue 11:00 AM  78.3°F  68°F  7 mph S  3 mph  22 mph  0.00"  17%  38%  29°F  40°F  30.00"
Tue 10:00 AM  75.7°F  64°F  10 mph S  3 mph  20 mph  0.00"  21%  45%  32°F  42°F  30.01"
Tue 09:00 AM  66.2°F  61°F  4 mph W  2 mph  9 mph  0.00"  51%  54%  47°F  44°F  30.01"
Tue 08:00 AM  59.5°F  57°F  3 mph W  2 mph  6 mph  0.00"  71%  63%  50°F  44°F  30.02"
Tue 07:00 AM  55.8°F  54°F  3 mph W  1 mph  6 mph  0.00"  78%  72%  49°F  45°F  30.01"
3Tue 06:11 AM  53.7°F  53°F  4 mph NW  2 mph  6 mph  ----  81%  73%  48°F  45°F  30.01"
Tue 06:00 AM  54.6°F  53°F  2 mph W  2 mph  6 mph  0.00"  80%  73%  48°F  44°F  30.00"
Tue 05:00 AM  55.6°F  54°F  2 mph W  2 mph  5 mph  0.00"  79%  71%  49°F  44°F  29.99"
Tue 04:00 AM  56.2°F  54°F  calm  1 mph  5 mph  0.00"  78%  70%  49°F  44°F  29.99"
Tue 03:00 AM  57.0°F  55°F  2 mph W  1 mph  4 mph  0.00"  76%  68%  49°F  44°F  30.00"
Tue 02:00 AM  58.3°F  56°F  calm  2 mph  4 mph  0.00"  72%  67%  49°F  44°F  30.00"
Tue 01:00 AM  58.4°F  56°F  calm  2 mph  3 mph  0.00"  70%  65%  48°F  44°F  30.01"
Tue 12:00 AM  59.1°F  57°F  calm  2 mph  4 mph  0.00"  70%  61%  49°F  44°F  30.01"
Mon 11:00 PM  60.2°F  59°F  2 mph W  2 mph  5 mph  0.00"  67%  60%  49°F  44°F  30.01"
Mon 10:00 PM  61.2°F  60°F  4 mph W  2 mph  7 mph  0.00"  61%  56%  47°F  43°F  30.01"
Mon 09:00 PM  64.6°F  62°F  calm  3 mph  8 mph  0.00"  51%  50%  46°F  42°F  29.99"
Mon 08:00 PM  66.2°F  64°F  5 mph NW  4 mph  11 mph  0.00"  46%  46%  44°F  42°F  29.96"
Mon 07:00 PM  68.4°F  67°F  5 mph NW  6 mph  14 mph  0.00"  40%  39%  42°F  40°F  29.95"
Mon 06:00 PM  68.9°F  69°F  7 mph W  7 mph  15 mph  0.00"  38%  35%  41°F  39°F  29.96"
Mon 05:00 PM  72.7°F  71°F  7 mph W  7 mph  17 mph  0.00"  32%  32%  40°F  39°F  29.94"
Mon 04:00 PM  73.6°F  72°F  9 mph W  7 mph  17 mph  0.00"  34%  32%  43°F  39°F  29.94"
Mon 03:00 PM  73.2°F  72°F  9 mph W  6 mph  17 mph  0.00"  32%  31%  40°F  39°F  29.96"
Mon 02:00 PM  72.5°F  72°F  9 mph E  6 mph  20 mph  0.00"  33%  31%  40°F  39°F  29.98"
Mon 01:00 PM  70.9°F  71°F  11 mph SW  5 mph  20 mph  0.00"  34%  31%  40°F  37°F  29.99"
Mon 12:00 PM  68.0°F  69°F  7 mph W  5 mph  17 mph  0.00"  45%  34%  45°F  38°F  30.00"
Mon 11:00 AM  63.4°F  67°F  6 mph W  3 mph  11 mph  0.00"  51%  38%  44°F  40°F  30.02"
Mon 10:00 AM  59.0°F  64°F  5 mph W  2 mph  10 mph  0.00"  59%  45%  44°F  42°F  30.02"
Mon 09:00 AM  57.8°F  60°F  2 mph W  2 mph  6 mph  0.00"  62%  55%  44°F  43°F  30.02"
Mon 08:00 AM  54.2°F  56°F  1 mph W  2 mph  4 mph  0.00"  70%  65%  44°F  44°F  30.03"
Mon 07:00 AM  50.2°F  54°F  2 mph W  1 mph  3 mph  0.00"  80%  71%  44°F  44°F  30.03"
Mon 06:00 AM  48.7°F  53°F  calm  2 mph  7 mph  0.00"  81%  72%  43°F  44°F  30.01"
Mon 05:00 AM  49.6°F  54°F  calm  2 mph  6 mph  0.00"  81%  69%  44°F  44°F  30.00"
Mon 04:00 AM  49.8°F  54°F  calm  1 mph  6 mph  0.00"  81%  68%  44°F  44°F  30.00"
Mon 03:00 AM  50.4°F  55°F  calm  2 mph  5 mph  0.00"  79%  67%  44°F  43°F  30.02"
Mon 02:00 AM  51.0°F  55°F  2 mph W  2 mph  9 mph  0.00"  78%  66%  44°F  44°F  30.02"
Mon 01:00 AM  51.7°F  56°F  2 mph W  2 mph  6 mph  0.00"  77%  64%  44°F  44°F  30.03"
Mon 12:00 AM  52.3°F  57°F  1 mph W  2 mph  6 mph  0.00"  76%  60%  45°F  43°F  30.04"

  1. Current weather data. No green row appears if the current weather data is also the high or low for the current day.
  2. High temperature for the current day.
  3. Low temperature for the current day.

The Riverside (Orangecrest), California weather pages are a service of WeatherCurrents.
Copyright ©2019  WeatherCurrents. All rights reserved. - Submit questions and comments - Privacy Policy

This page automatically refreshes every 10 minutes.